sensor_id;sensor_type;location;lat;lon;timestamp;temperature;humidity
10431;DHT22;5262;59.958;17.726;2023-07-31T00:02:01;14.50;99.90
10431;DHT22;5262;59.958;17.726;2023-07-31T00:04:26;14.50;99.90
10431;DHT22;5262;59.958;17.726;2023-07-31T00:06:52;14.40;99.90
10431;DHT22;5262;59.958;17.726;2023-07-31T00:09:17;14.50;99.90
10431;DHT22;5262;59.958;17.726;2023-07-31T00:11:43;14.40;99.90
10431;DHT22;5262;59.958;17.726;2023-07-31T00:14:09;14.40;99.90
10431;DHT22;5262;59.958;17.726;2023-07-31T00:16:34;14.30;99.90
10431;DHT22;5262;59.958;17.726;2023-07-31T00:19:00;14.30;99.90
10431;DHT22;5262;59.958;17.726;2023-07-31T00:21:25;14.20;99.90
10431;DHT22;5262;59.958;17.726;2023-07-31T00:23:51;14.20;99.90
10431;DHT22;5262;59.958;17.726;2023-07-31T00:26:17;14.20;99.90
10431;DHT22;5262;59.958;17.726;2023-07-31T00:28:42;14.10;99.90
10431;DHT22;5262;59.958;17.726;2023-07-31T00:31:08;14.10;99.90
10431;DHT22;5262;59.958;17.726;2023-07-31T00:33:34;14.10;99.90
10431;DHT22;5262;59.958;17.726;2023-07-31T00:36:00;14.00;99.90
10431;DHT22;5262;59.958;17.726;2023-07-31T00:38:26;13.90;99.90
10431;DHT22;5262;59.958;17.726;2023-07-31T00:40:52;13.90;99.90
10431;DHT22;5262;59.958;17.726;2023-07-31T00:43:17;13.90;99.90
10431;DHT22;5262;59.958;17.726;2023-07-31T00:45:44;13.90;99.90
10431;DHT22;5262;59.958;17.726;2023-07-31T00:48:09;13.90;99.90
10431;DHT22;5262;59.958;17.726;2023-07-31T00:50:35;13.80;99.90
10431;DHT22;5262;59.958;17.726;2023-07-31T00:53:01;13.80;99.90
10431;DHT22;5262;59.958;17.726;2023-07-31T00:55:27;13.80;99.90
10431;DHT22;5262;59.958;17.726;2023-07-31T00:57:53;13.70;99.90
10431;DHT22;5262;59.958;17.726;2023-07-31T01:00:21;13.70;99.90
10431;DHT22;5262;59.958;17.726;2023-07-31T01:02:48;13.60;99.90
10431;DHT22;5262;59.958;17.726;2023-07-31T01:05:14;13.60;99.90
10431;DHT22;5262;59.958;17.726;2023-07-31T01:08:05;13.60;99.90
10431;DHT22;5262;59.958;17.726;2023-07-31T01:10:39;13.50;99.90
10431;DHT22;5262;59.958;17.726;2023-07-31T01:13:07;13.40;99.90
10431;DHT22;5262;59.958;17.726;2023-07-31T01:15:33;13.40;99.90
10431;DHT22;5262;59.958;17.726;2023-07-31T01:17:59;13.50;99.90
10431;DHT22;5262;59.958;17.726;2023-07-31T01:20:26;13.40;99.90
10431;DHT22;5262;59.958;17.726;2023-07-31T01:23:35;13.40;99.90
10431;DHT22;5262;59.958;17.726;2023-07-31T01:26:05;13.30;99.90
10431;DHT22;5262;59.958;17.726;2023-07-31T01:31:09;13.20;99.90
10431;DHT22;5262;59.958;17.726;2023-07-31T01:33:37;13.10;99.90
10431;DHT22;5262;59.958;17.726;2023-07-31T01:36:03;13.10;99.90
10431;DHT22;5262;59.958;17.726;2023-07-31T01:38:29;13.00;99.90
10431;DHT22;5262;59.958;17.726;2023-07-31T01:40:55;13.00;99.90
10431;DHT22;5262;59.958;17.726;2023-07-31T01:43:20;13.00;99.90
10431;DHT22;5262;59.958;17.726;2023-07-31T01:45:46;12.90;99.90
10431;DHT22;5262;59.958;17.726;2023-07-31T01:48:11;12.80;99.90
10431;DHT22;5262;59.958;17.726;2023-07-31T01:50:37;12.80;99.90
10431;DHT22;5262;59.958;17.726;2023-07-31T01:53:03;12.80;99.90
10431;DHT22;5262;59.958;17.726;2023-07-31T01:55:28;12.80;99.90
10431;DHT22;5262;59.958;17.726;2023-07-31T01:57:54;12.70;99.90
10431;DHT22;5262;59.958;17.726;2023-07-31T02:00:19;12.70;99.90
10431;DHT22;5262;59.958;17.726;2023-07-31T02:02:45;12.70;99.90
10431;DHT22;5262;59.958;17.726;2023-07-31T02:05:11;12.50;99.90
10431;DHT22;5262;59.958;17.726;2023-07-31T02:07:36;12.50;99.90
10431;DHT22;5262;59.958;17.726;2023-07-31T02:10:02;12.40;99.90
10431;DHT22;5262;59.958;17.726;2023-07-31T02:12:28;12.40;99.90
10431;DHT22;5262;59.958;17.726;2023-07-31T02:14:56;12.40;99.90
10431;DHT22;5262;59.958;17.726;2023-07-31T02:17:22;12.30;99.90
10431;DHT22;5262;59.958;17.726;2023-07-31T02:19:48;12.30;99.90
10431;DHT22;5262;59.958;17.726;2023-07-31T02:22:13;12.30;99.90
10431;DHT22;5262;59.958;17.726;2023-07-31T02:24:39;12.20;99.90
10431;DHT22;5262;59.958;17.726;2023-07-31T02:27:05;12.20;99.90
10431;DHT22;5262;59.958;17.726;2023-07-31T02:29:30;12.20;99.90
10431;DHT22;5262;59.958;17.726;2023-07-31T02:31:56;12.20;99.90
10431;DHT22;5262;59.958;17.726;2023-07-31T02:34:22;12.20;99.90
10431;DHT22;5262;59.958;17.726;2023-07-31T02:36:47;12.10;99.90
10431;DHT22;5262;59.958;17.726;2023-07-31T02:39:13;12.00;99.90
10431;DHT22;5262;59.958;17.726;2023-07-31T02:41:38;12.00;99.90
10431;DHT22;5262;59.958;17.726;2023-07-31T02:44:04;12.00;99.90
10431;DHT22;5262;59.958;17.726;2023-07-31T02:46:30;12.00;99.90
10431;DHT22;5262;59.958;17.726;2023-07-31T02:48:55;11.90;99.90
10431;DHT22;5262;59.958;17.726;2023-07-31T02:51:21;11.90;99.90
10431;DHT22;5262;59.958;17.726;2023-07-31T02:53:47;11.90;99.90
10431;DHT22;5262;59.958;17.726;2023-07-31T02:56:13;11.90;99.90
10431;DHT22;5262;59.958;17.726;2023-07-31T02:58:39;11.90;99.90
10431;DHT22;5262;59.958;17.726;2023-07-31T03:01:04;11.90;99.90
10431;DHT22;5262;59.958;17.726;2023-07-31T03:03:31;11.80;99.90
10431;DHT22;5262;59.958;17.726;2023-07-31T03:05:56;11.90;99.90
10431;DHT22;5262;59.958;17.726;2023-07-31T03:08:23;11.90;99.90
10431;DHT22;5262;59.958;17.726;2023-07-31T03:10:48;11.90;99.90
10431;DHT22;5262;59.958;17.726;2023-07-31T03:13:14;11.90;99.90
10431;DHT22;5262;59.958;17.726;2023-07-31T03:15:42;11.80;99.90
10431;DHT22;5262;59.958;17.726;2023-07-31T03:18:08;11.90;99.90
10431;DHT22;5262;59.958;17.726;2023-07-31T03:20:33;11.80;99.90
10431;DHT22;5262;59.958;17.726;2023-07-31T03:22:59;11.90;99.90
10431;DHT22;5262;59.958;17.726;2023-07-31T03:25:24;11.80;99.90
10431;DHT22;5262;59.958;17.726;2023-07-31T03:27:50;11.90;99.90
10431;DHT22;5262;59.958;17.726;2023-07-31T03:30:15;11.90;99.90
10431;DHT22;5262;59.958;17.726;2023-07-31T03:32:41;11.90;99.90
10431;DHT22;5262;59.958;17.726;2023-07-31T03:35:07;11.90;99.90
10431;DHT22;5262;59.958;17.726;2023-07-31T03:37:32;11.90;99.90
10431;DHT22;5262;59.958;17.726;2023-07-31T03:39:58;11.90;99.90
10431;DHT22;5262;59.958;17.726;2023-07-31T03:42:24;11.90;99.90
10431;DHT22;5262;59.958;17.726;2023-07-31T03:44:49;11.90;99.90
10431;DHT22;5262;59.958;17.726;2023-07-31T03:47:15;11.80;99.90
10431;DHT22;5262;59.958;17.726;2023-07-31T03:49:41;11.80;99.90
10431;DHT22;5262;59.958;17.726;2023-07-31T03:52:06;11.90;99.90
10431;DHT22;5262;59.958;17.726;2023-07-31T03:54:32;11.80;99.90
10431;DHT22;5262;59.958;17.726;2023-07-31T03:56:58;11.90;99.90
10431;DHT22;5262;59.958;17.726;2023-07-31T03:59:23;11.90;99.90
10431;DHT22;5262;59.958;17.726;2023-07-31T04:01:49;12.00;99.90
10431;DHT22;5262;59.958;17.726;2023-07-31T04:04:15;12.00;99.90
10431;DHT22;5262;59.958;17.726;2023-07-31T04:06:40;12.00;99.90
10431;DHT22;5262;59.958;17.726;2023-07-31T04:09:06;12.00;99.90
10431;DHT22;5262;59.958;17.726;2023-07-31T04:11:32;12.10;99.90
10431;DHT22;5262;59.958;17.726;2023-07-31T04:13:57;12.20;99.90
10431;DHT22;5262;59.958;17.726;2023-07-31T04:16:23;12.20;99.90
10431;DHT22;5262;59.958;17.726;2023-07-31T04:18:49;12.30;99.90
10431;DHT22;5262;59.958;17.726;2023-07-31T04:21:14;12.30;99.90
10431;DHT22;5262;59.958;17.726;2023-07-31T04:23:40;12.40;99.90
10431;DHT22;5262;59.958;17.726;2023-07-31T04:26:06;12.40;99.90
10431;DHT22;5262;59.958;17.726;2023-07-31T04:28:31;12.40;99.90
10431;DHT22;5262;59.958;17.726;2023-07-31T04:30:57;12.50;99.90
10431;DHT22;5262;59.958;17.726;2023-07-31T04:33:23;12.70;99.90
10431;DHT22;5262;59.958;17.726;2023-07-31T04:35:53;12.90;99.90
10431;DHT22;5262;59.958;17.726;2023-07-31T04:38:22;13.00;99.90
10431;DHT22;5262;59.958;17.726;2023-07-31T04:40:48;13.10;99.90
10431;DHT22;5262;59.958;17.726;2023-07-31T04:43:14;13.20;99.90
10431;DHT22;5262;59.958;17.726;2023-07-31T04:45:44;13.40;99.90
10431;DHT22;5262;59.958;17.726;2023-07-31T04:48:10;13.60;99.90
10431;DHT22;5262;59.958;17.726;2023-07-31T04:50:36;13.80;99.90
10431;DHT22;5262;59.958;17.726;2023-07-31T04:53:01;13.90;99.90
10431;DHT22;5262;59.958;17.726;2023-07-31T04:55:27;14.10;99.90
10431;DHT22;5262;59.958;17.726;2023-07-31T04:57:52;14.20;99.90
10431;DHT22;5262;59.958;17.726;2023-07-31T05:00:18;14.30;99.90
10431;DHT22;5262;59.958;17.726;2023-07-31T05:02:44;14.50;99.90
10431;DHT22;5262;59.958;17.726;2023-07-31T05:05:09;14.60;99.90
10431;DHT22;5262;59.958;17.726;2023-07-31T05:07:35;14.70;99.90
10431;DHT22;5262;59.958;17.726;2023-07-31T05:10:01;14.80;99.90
10431;DHT22;5262;59.958;17.726;2023-07-31T05:12:26;14.90;99.90
10431;DHT22;5262;59.958;17.726;2023-07-31T05:14:52;15.00;99.90
10431;DHT22;5262;59.958;17.726;2023-07-31T05:17:17;15.20;99.90
10431;DHT22;5262;59.958;17.726;2023-07-31T05:19:43;15.20;99.90
10431;DHT22;5262;59.958;17.726;2023-07-31T05:22:09;15.30;99.90
10431;DHT22;5262;59.958;17.726;2023-07-31T05:24:34;15.30;99.90
10431;DHT22;5262;59.958;17.726;2023-07-31T05:27:00;15.40;99.90
10431;DHT22;5262;59.958;17.726;2023-07-31T05:29:25;15.50;99.90
10431;DHT22;5262;59.958;17.726;2023-07-31T05:31:51;15.70;99.90
10431;DHT22;5262;59.958;17.726;2023-07-31T05:34:17;15.70;99.90
10431;DHT22;5262;59.958;17.726;2023-07-31T05:36:42;15.80;99.90
10431;DHT22;5262;59.958;17.726;2023-07-31T05:39:08;15.90;99.90
10431;DHT22;5262;59.958;17.726;2023-07-31T05:41:35;16.10;99.90
10431;DHT22;5262;59.958;17.726;2023-07-31T05:44:00;16.20;99.90
10431;DHT22;5262;59.958;17.726;2023-07-31T05:46:26;16.30;99.90
10431;DHT22;5262;59.958;17.726;2023-07-31T05:48:52;16.40;99.90
10431;DHT22;5262;59.958;17.726;2023-07-31T05:51:17;16.60;99.90
10431;DHT22;5262;59.958;17.726;2023-07-31T05:53:43;16.60;99.90
10431;DHT22;5262;59.958;17.726;2023-07-31T05:56:09;16.70;99.90
10431;DHT22;5262;59.958;17.726;2023-07-31T05:58:35;16.60;99.90
10431;DHT22;5262;59.958;17.726;2023-07-31T06:01:01;16.70;99.90
10431;DHT22;5262;59.958;17.726;2023-07-31T06:03:26;16.90;99.90
10431;DHT22;5262;59.958;17.726;2023-07-31T06:05:52;17.00;99.90
10431;DHT22;5262;59.958;17.726;2023-07-31T06:08:18;17.00;99.90
10431;DHT22;5262;59.958;17.726;2023-07-31T06:10:43;17.00;99.90
10431;DHT22;5262;59.958;17.726;2023-07-31T06:13:09;17.10;99.90
10431;DHT22;5262;59.958;17.726;2023-07-31T06:15:34;17.00;99.90
10431;DHT22;5262;59.958;17.726;2023-07-31T06:18:00;17.00;99.90
10431;DHT22;5262;59.958;17.726;2023-07-31T06:20:27;17.20;99.90
10431;DHT22;5262;59.958;17.726;2023-07-31T06:22:53;17.40;99.90
10431;DHT22;5262;59.958;17.726;2023-07-31T06:25:19;17.30;99.90
10431;DHT22;5262;59.958;17.726;2023-07-31T06:27:45;17.40;99.90
10431;DHT22;5262;59.958;17.726;2023-07-31T06:30:11;17.20;99.90
10431;DHT22;5262;59.958;17.726;2023-07-31T06:32:36;17.30;99.90
10431;DHT22;5262;59.958;17.726;2023-07-31T06:35:02;17.20;99.90
10431;DHT22;5262;59.958;17.726;2023-07-31T06:37:28;17.40;99.90
10431;DHT22;5262;59.958;17.726;2023-07-31T06:39:53;17.50;99.90
10431;DHT22;5262;59.958;17.726;2023-07-31T06:42:19;17.40;99.90
10431;DHT22;5262;59.958;17.726;2023-07-31T06:44:44;17.50;99.90
10431;DHT22;5262;59.958;17.726;2023-07-31T06:47:10;17.60;99.90
10431;DHT22;5262;59.958;17.726;2023-07-31T06:49:36;17.70;99.90
10431;DHT22;5262;59.958;17.726;2023-07-31T06:52:01;17.80;99.90
10431;DHT22;5262;59.958;17.726;2023-07-31T06:54:27;17.80;99.90
10431;DHT22;5262;59.958;17.726;2023-07-31T06:56:52;17.80;99.90
10431;DHT22;5262;59.958;17.726;2023-07-31T06:59:18;18.10;99.90
10431;DHT22;5262;59.958;17.726;2023-07-31T07:01:44;18.00;99.90
10431;DHT22;5262;59.958;17.726;2023-07-31T07:04:09;18.10;99.90
10431;DHT22;5262;59.958;17.726;2023-07-31T07:06:35;18.10;99.90
10431;DHT22;5262;59.958;17.726;2023-07-31T07:09:00;18.10;99.90
10431;DHT22;5262;59.958;17.726;2023-07-31T07:11:26;18.10;99.90
10431;DHT22;5262;59.958;17.726;2023-07-31T07:13:52;18.20;99.90
10431;DHT22;5262;59.958;17.726;2023-07-31T07:16:17;18.30;99.90
10431;DHT22;5262;59.958;17.726;2023-07-31T07:18:43;18.40;99.90
10431;DHT22;5262;59.958;17.726;2023-07-31T07:21:08;18.60;99.90
10431;DHT22;5262;59.958;17.726;2023-07-31T07:23:34;18.70;99.90
10431;DHT22;5262;59.958;17.726;2023-07-31T07:26:00;18.80;99.90
10431;DHT22;5262;59.958;17.726;2023-07-31T07:28:25;18.80;99.90
10431;DHT22;5262;59.958;17.726;2023-07-31T07:30:54;18.90;99.90
10431;DHT22;5262;59.958;17.726;2023-07-31T07:33:19;19.10;99.90
10431;DHT22;5262;59.958;17.726;2023-07-31T07:35:45;19.30;99.90
10431;DHT22;5262;59.958;17.726;2023-07-31T07:38:11;19.60;99.90
10431;DHT22;5262;59.958;17.726;2023-07-31T07:40:40;19.90;99.90
10431;DHT22;5262;59.958;17.726;2023-07-31T07:43:06;20.10;99.90
10431;DHT22;5262;59.958;17.726;2023-07-31T07:45:31;20.10;99.90
10431;DHT22;5262;59.958;17.726;2023-07-31T07:47:57;20.10;99.90
10431;DHT22;5262;59.958;17.726;2023-07-31T07:50:24;20.50;99.90
10431;DHT22;5262;59.958;17.726;2023-07-31T07:52:50;20.90;99.90
10431;DHT22;5262;59.958;17.726;2023-07-31T07:55:15;21.00;99.90
10431;DHT22;5262;59.958;17.726;2023-07-31T07:57:41;21.60;99.90
10431;DHT22;5262;59.958;17.726;2023-07-31T08:00:07;22.00;99.90
10431;DHT22;5262;59.958;17.726;2023-07-31T08:02:33;22.60;99.90
10431;DHT22;5262;59.958;17.726;2023-07-31T08:04:58;23.00;99.90
10431;DHT22;5262;59.958;17.726;2023-07-31T08:07:24;23.40;99.90
10431;DHT22;5262;59.958;17.726;2023-07-31T08:09:49;24.30;99.90
10431;DHT22;5262;59.958;17.726;2023-07-31T08:12:15;25.20;99.90
10431;DHT22;5262;59.958;17.726;2023-07-31T08:14:41;25.80;96.80
10431;DHT22;5262;59.958;17.726;2023-07-31T08:17:06;26.10;97.30
10431;DHT22;5262;59.958;17.726;2023-07-31T08:19:32;27.30;96.40
10431;DHT22;5262;59.958;17.726;2023-07-31T08:21:57;27.10;94.30
10431;DHT22;5262;59.958;17.726;2023-07-31T08:24:23;26.80;92.70
10431;DHT22;5262;59.958;17.726;2023-07-31T08:26:49;27.50;90.30
10431;DHT22;5262;59.958;17.726;2023-07-31T08:29:14;27.80;87.20
10431;DHT22;5262;59.958;17.726;2023-07-31T08:31:40;28.00;86.10
10431;DHT22;5262;59.958;17.726;2023-07-31T08:34:05;27.60;85.60
10431;DHT22;5262;59.958;17.726;2023-07-31T08:36:31;26.60;88.30
10431;DHT22;5262;59.958;17.726;2023-07-31T08:38:57;25.30;89.70
10431;DHT22;5262;59.958;17.726;2023-07-31T08:41:22;25.20;91.30
10431;DHT22;5262;59.958;17.726;2023-07-31T08:43:50;26.20;90.50
10431;DHT22;5262;59.958;17.726;2023-07-31T08:46:16;26.20;90.50
10431;DHT22;5262;59.958;17.726;2023-07-31T08:48:42;25.50;91.80
10431;DHT22;5262;59.958;17.726;2023-07-31T08:51:09;24.50;92.30
10431;DHT22;5262;59.958;17.726;2023-07-31T08:53:35;23.60;92.40
10431;DHT22;5262;59.958;17.726;2023-07-31T08:56:01;22.90;93.10
10431;DHT22;5262;59.958;17.726;2023-07-31T08:58:31;22.30;95.40
10431;DHT22;5262;59.958;17.726;2023-07-31T09:01:00;21.70;97.90
10431;DHT22;5262;59.958;17.726;2023-07-31T09:03:26;21.20;98.40
10431;DHT22;5262;59.958;17.726;2023-07-31T09:05:53;21.10;99.30
10431;DHT22;5262;59.958;17.726;2023-07-31T09:08:21;20.70;99.90
10431;DHT22;5262;59.958;17.726;2023-07-31T09:10:47;20.40;99.90
10431;DHT22;5262;59.958;17.726;2023-07-31T09:13:13;20.10;99.90
10431;DHT22;5262;59.958;17.726;2023-07-31T09:15:40;19.70;99.90
10431;DHT22;5262;59.958;17.726;2023-07-31T09:18:08;19.50;99.90
10431;DHT22;5262;59.958;17.726;2023-07-31T09:20:34;19.40;99.90
10431;DHT22;5262;59.958;17.726;2023-07-31T09:25:31;18.90;99.90
10431;DHT22;5262;59.958;17.726;2023-07-31T09:27:59;18.70;99.90
10431;DHT22;5262;59.958;17.726;2023-07-31T09:30:26;18.40;99.90
10431;DHT22;5262;59.958;17.726;2023-07-31T09:33:03;18.30;99.90
10431;DHT22;5262;59.958;17.726;2023-07-31T09:35:31;18.00;99.90
10431;DHT22;5262;59.958;17.726;2023-07-31T09:38:03;17.90;99.90
10431;DHT22;5262;59.958;17.726;2023-07-31T09:40:30;17.90;99.90
10431;DHT22;5262;59.958;17.726;2023-07-31T09:42:58;17.70;99.90
10431;DHT22;5262;59.958;17.726;2023-07-31T09:45:25;17.50;99.90
10431;DHT22;5262;59.958;17.726;2023-07-31T09:47:51;17.40;99.90
10431;DHT22;5262;59.958;17.726;2023-07-31T09:50:17;17.40;99.90
10431;DHT22;5262;59.958;17.726;2023-07-31T09:52:43;17.20;99.90
10431;DHT22;5262;59.958;17.726;2023-07-31T09:55:09;17.20;99.90
10431;DHT22;5262;59.958;17.726;2023-07-31T09:57:40;17.10;99.90
10431;DHT22;5262;59.958;17.726;2023-07-31T10:00:10;17.00;99.90
10431;DHT22;5262;59.958;17.726;2023-07-31T10:02:37;16.90;99.90
10431;DHT22;5262;59.958;17.726;2023-07-31T10:05:04;16.80;99.90
10431;DHT22;5262;59.958;17.726;2023-07-31T10:07:31;16.70;99.90
10431;DHT22;5262;59.958;17.726;2023-07-31T10:09:59;16.60;99.90
10431;DHT22;5262;59.958;17.726;2023-07-31T10:12:29;16.50;99.90
10431;DHT22;5262;59.958;17.726;2023-07-31T10:14:55;16.40;99.90
10431;DHT22;5262;59.958;17.726;2023-07-31T10:17:25;16.30;99.90
10431;DHT22;5262;59.958;17.726;2023-07-31T10:19:51;16.30;99.90
10431;DHT22;5262;59.958;17.726;2023-07-31T10:22:19;16.20;99.90
10431;DHT22;5262;59.958;17.726;2023-07-31T10:24:46;16.10;99.90
10431;DHT22;5262;59.958;17.726;2023-07-31T10:27:12;16.10;99.90
10431;DHT22;5262;59.958;17.726;2023-07-31T10:29:39;16.10;99.90
10431;DHT22;5262;59.958;17.726;2023-07-31T10:32:06;16.00;99.90
10431;DHT22;5262;59.958;17.726;2023-07-31T10:34:35;15.90;99.90
10431;DHT22;5262;59.958;17.726;2023-07-31T10:40:09;15.90;99.90
10431;DHT22;5262;59.958;17.726;2023-07-31T10:42:52;15.90;99.90
10431;DHT22;5262;59.958;17.726;2023-07-31T10:45:32;15.70;99.90
10431;DHT22;5262;59.958;17.726;2023-07-31T10:48:00;15.70;99.90
10431;DHT22;5262;59.958;17.726;2023-07-31T10:50:27;15.80;99.90
10431;DHT22;5262;59.958;17.726;2023-07-31T10:52:59;15.90;99.90
10431;DHT22;5262;59.958;17.726;2023-07-31T10:57:56;16.00;99.90
10431;DHT22;5262;59.958;17.726;2023-07-31T11:00:28;16.10;99.90
10431;DHT22;5262;59.958;17.726;2023-07-31T11:02:58;16.20;99.90
10431;DHT22;5262;59.958;17.726;2023-07-31T11:08:27;16.20;99.90
10431;DHT22;5262;59.958;17.726;2023-07-31T11:13:33;16.40;99.90
10431;DHT22;5262;59.958;17.726;2023-07-31T11:16:00;16.70;99.90
10431;DHT22;5262;59.958;17.726;2023-07-31T11:18:26;16.90;99.90
10431;DHT22;5262;59.958;17.726;2023-07-31T11:20:53;17.30;99.90
10431;DHT22;5262;59.958;17.726;2023-07-31T11:23:19;17.90;99.90
10431;DHT22;5262;59.958;17.726;2023-07-31T11:25:46;19.20;99.90
10431;DHT22;5262;59.958;17.726;2023-07-31T11:28:13;20.50;99.90
10431;DHT22;5262;59.958;17.726;2023-07-31T11:30:43;21.40;99.90
10431;DHT22;5262;59.958;17.726;2023-07-31T11:33:11;22.40;99.90
10431;DHT22;5262;59.958;17.726;2023-07-31T11:35:47;23.10;99.90
10431;DHT22;5262;59.958;17.726;2023-07-31T11:38:30;23.10;99.90
10431;DHT22;5262;59.958;17.726;2023-07-31T11:41:00;22.90;99.90
10431;DHT22;5262;59.958;17.726;2023-07-31T11:43:28;22.50;99.90
10431;DHT22;5262;59.958;17.726;2023-07-31T11:45:58;23.30;99.90
10431;DHT22;5262;59.958;17.726;2023-07-31T11:48:31;23.40;99.90
10431;DHT22;5262;59.958;17.726;2023-07-31T11:51:07;23.00;99.90
10431;DHT22;5262;59.958;17.726;2023-07-31T11:56:13;21.80;99.90
10431;DHT22;5262;59.958;17.726;2023-07-31T11:58:39;21.80;99.90
10431;DHT22;5262;59.958;17.726;2023-07-31T12:01:06;21.40;99.90
10431;DHT22;5262;59.958;17.726;2023-07-31T12:03:32;21.40;99.90
10431;DHT22;5262;59.958;17.726;2023-07-31T12:05:58;21.40;99.90
10431;DHT22;5262;59.958;17.726;2023-07-31T12:08:24;21.00;99.90
10431;DHT22;5262;59.958;17.726;2023-07-31T12:10:52;20.80;99.90
10431;DHT22;5262;59.958;17.726;2023-07-31T12:13:26;20.50;99.90
10431;DHT22;5262;59.958;17.726;2023-07-31T12:15:59;20.30;99.90
10431;DHT22;5262;59.958;17.726;2023-07-31T12:18:27;19.90;99.90
10431;DHT22;5262;59.958;17.726;2023-07-31T12:21:00;19.90;99.90
10431;DHT22;5262;59.958;17.726;2023-07-31T12:23:27;19.70;99.90
10431;DHT22;5262;59.958;17.726;2023-07-31T12:28:40;19.60;99.90
10431;DHT22;5262;59.958;17.726;2023-07-31T12:31:06;19.40;99.90
10431;DHT22;5262;59.958;17.726;2023-07-31T12:33:34;19.00;99.90
10431;DHT22;5262;59.958;17.726;2023-07-31T12:36:02;18.90;99.90
10431;DHT22;5262;59.958;17.726;2023-07-31T12:38:29;18.80;99.90
10431;DHT22;5262;59.958;17.726;2023-07-31T12:40:55;18.90;99.90
10431;DHT22;5262;59.958;17.726;2023-07-31T12:43:20;18.70;99.90
10431;DHT22;5262;59.958;17.726;2023-07-31T12:45:46;18.60;99.90
10431;DHT22;5262;59.958;17.726;2023-07-31T12:48:13;18.70;99.90
10431;DHT22;5262;59.958;17.726;2023-07-31T12:50:38;18.60;99.90
10431;DHT22;5262;59.958;17.726;2023-07-31T12:53:04;18.50;99.90
10431;DHT22;5262;59.958;17.726;2023-07-31T12:55:30;18.50;99.90
10431;DHT22;5262;59.958;17.726;2023-07-31T12:57:56;18.60;99.90
10431;DHT22;5262;59.958;17.726;2023-07-31T13:00:22;18.50;99.90
10431;DHT22;5262;59.958;17.726;2023-07-31T13:02:48;18.40;99.90
10431;DHT22;5262;59.958;17.726;2023-07-31T13:05:13;18.30;99.90
10431;DHT22;5262;59.958;17.726;2023-07-31T13:07:40;18.30;99.90
10431;DHT22;5262;59.958;17.726;2023-07-31T13:10:06;18.20;99.90
10431;DHT22;5262;59.958;17.726;2023-07-31T13:12:35;18.20;99.90
10431;DHT22;5262;59.958;17.726;2023-07-31T13:15:01;18.20;99.90
10431;DHT22;5262;59.958;17.726;2023-07-31T13:17:27;18.20;99.90
10431;DHT22;5262;59.958;17.726;2023-07-31T13:19:52;18.10;99.90
10431;DHT22;5262;59.958;17.726;2023-07-31T13:22:18;18.20;99.90
10431;DHT22;5262;59.958;17.726;2023-07-31T13:24:43;18.30;99.90
10431;DHT22;5262;59.958;17.726;2023-07-31T13:27:09;18.40;99.90
10431;DHT22;5262;59.958;17.726;2023-07-31T13:29:34;18.50;99.90
10431;DHT22;5262;59.958;17.726;2023-07-31T13:32:00;18.60;99.90
10431;DHT22;5262;59.958;17.726;2023-07-31T13:34:26;18.70;99.90
10431;DHT22;5262;59.958;17.726;2023-07-31T13:36:53;18.60;99.90
10431;DHT22;5262;59.958;17.726;2023-07-31T13:39:19;18.70;99.90
10431;DHT22;5262;59.958;17.726;2023-07-31T13:41:45;18.70;99.90
10431;DHT22;5262;59.958;17.726;2023-07-31T13:44:10;18.70;99.90
10431;DHT22;5262;59.958;17.726;2023-07-31T13:46:36;18.70;99.90
10431;DHT22;5262;59.958;17.726;2023-07-31T13:49:02;18.70;99.90
10431;DHT22;5262;59.958;17.726;2023-07-31T13:51:27;18.80;99.90
10431;DHT22;5262;59.958;17.726;2023-07-31T13:53:53;18.70;99.90
10431;DHT22;5262;59.958;17.726;2023-07-31T13:56:19;18.70;99.90
10431;DHT22;5262;59.958;17.726;2023-07-31T13:58:45;18.70;99.90
10431;DHT22;5262;59.958;17.726;2023-07-31T14:01:10;18.80;99.90
10431;DHT22;5262;59.958;17.726;2023-07-31T14:03:36;18.70;99.90
10431;DHT22;5262;59.958;17.726;2023-07-31T14:06:02;18.50;99.90
10431;DHT22;5262;59.958;17.726;2023-07-31T14:08:27;18.60;99.90
10431;DHT22;5262;59.958;17.726;2023-07-31T14:10:55;18.70;99.90
10431;DHT22;5262;59.958;17.726;2023-07-31T14:13:21;18.60;99.90
10431;DHT22;5262;59.958;17.726;2023-07-31T14:15:46;18.40;99.90
10431;DHT22;5262;59.958;17.726;2023-07-31T14:18:12;18.20;99.90
10431;DHT22;5262;59.958;17.726;2023-07-31T14:20:38;18.30;99.90
10431;DHT22;5262;59.958;17.726;2023-07-31T14:23:03;18.40;99.90
10431;DHT22;5262;59.958;17.726;2023-07-31T14:25:29;18.40;99.90
10431;DHT22;5262;59.958;17.726;2023-07-31T14:27:55;18.50;99.90
10431;DHT22;5262;59.958;17.726;2023-07-31T14:30:20;18.60;99.90
10431;DHT22;5262;59.958;17.726;2023-07-31T14:32:47;18.70;99.90
10431;DHT22;5262;59.958;17.726;2023-07-31T14:35:12;18.70;99.90
10431;DHT22;5262;59.958;17.726;2023-07-31T14:37:43;18.70;99.90
10431;DHT22;5262;59.958;17.726;2023-07-31T14:40:10;18.70;99.90
10431;DHT22;5262;59.958;17.726;2023-07-31T14:42:37;18.50;99.90
10431;DHT22;5262;59.958;17.726;2023-07-31T14:45:03;18.20;99.90
10431;DHT22;5262;59.958;17.726;2023-07-31T14:47:29;18.10;99.90
10431;DHT22;5262;59.958;17.726;2023-07-31T14:49:56;18.30;99.90
10431;DHT22;5262;59.958;17.726;2023-07-31T14:52:22;18.30;99.90
10431;DHT22;5262;59.958;17.726;2023-07-31T14:54:48;18.20;99.90
10431;DHT22;5262;59.958;17.726;2023-07-31T14:57:13;18.10;99.90
10431;DHT22;5262;59.958;17.726;2023-07-31T14:59:39;18.10;99.90
10431;DHT22;5262;59.958;17.726;2023-07-31T15:02:05;18.10;99.90
10431;DHT22;5262;59.958;17.726;2023-07-31T15:04:31;18.00;99.90
10431;DHT22;5262;59.958;17.726;2023-07-31T15:06:56;17.90;99.90
10431;DHT22;5262;59.958;17.726;2023-07-31T15:09:22;17.50;99.90
10431;DHT22;5262;59.958;17.726;2023-07-31T15:11:48;17.30;99.90
10431;DHT22;5262;59.958;17.726;2023-07-31T15:14:13;17.20;99.90
10431;DHT22;5262;59.958;17.726;2023-07-31T15:16:39;17.00;99.90
10431;DHT22;5262;59.958;17.726;2023-07-31T15:19:04;17.00;99.90
10431;DHT22;5262;59.958;17.726;2023-07-31T15:21:30;16.90;99.90
10431;DHT22;5262;59.958;17.726;2023-07-31T15:23:56;16.80;99.90
10431;DHT22;5262;59.958;17.726;2023-07-31T15:26:21;16.70;99.90
10431;DHT22;5262;59.958;17.726;2023-07-31T15:28:50;16.60;99.90
10431;DHT22;5262;59.958;17.726;2023-07-31T15:31:20;16.60;99.90
10431;DHT22;5262;59.958;17.726;2023-07-31T15:33:48;16.60;99.90
10431;DHT22;5262;59.958;17.726;2023-07-31T15:36:13;16.60;99.90
10431;DHT22;5262;59.958;17.726;2023-07-31T15:38:39;16.60;99.90
10431;DHT22;5262;59.958;17.726;2023-07-31T15:41:05;16.50;99.90
10431;DHT22;5262;59.958;17.726;2023-07-31T15:43:31;16.40;99.90
10431;DHT22;5262;59.958;17.726;2023-07-31T15:45:58;16.40;99.90
10431;DHT22;5262;59.958;17.726;2023-07-31T15:48:23;16.30;99.90